Raco, Michigan
Current Conditions -  °F | °C
As of 1:00 PM on Thursday 23 Oct 2014 (Local Time) from CYAM Reporting Station
Broken Clouds Broken Clouds  
Wind Chill: 46°   Ceiling: 21000
Heat Index: 48°   Visibility: 12mi
Dew Point: 41°   Wind: 6mph
Humidity: 76%   Direction: 80°E
Pressure: 30.18"   Gusts: NA
Location:  46.4104°N, 84.5584°W
Report Text: CYAM 231700Z 08005KT 12SM SCT016 BKN210 09/05 A3018 RMK CF3CI3 CONTRAILS SLP227
Loading
Personal Weather Stations






























Interactive Weather Map
Tropical Storm Tracking
New forecast layout! Learn more

10-Day Weather Forecast

Advertisements
Track Severe Weather on mobile